sensor_id;sensor_type;location;lat;lon;timestamp;P1;durP1;ratioP1;P2;durP2;ratioP2
41861;SDS011;27537;57.134;-2.136;2023-08-07T00:00:28;7.28;;;2.92;;
41861;SDS011;27537;57.134;-2.136;2023-08-07T00:02:54;10.02;;;3.47;;
41861;SDS011;27537;57.134;-2.136;2023-08-07T00:05:21;8.50;;;2.78;;
41861;SDS011;27537;57.134;-2.136;2023-08-07T00:07:48;9.05;;;3.22;;
41861;SDS011;27537;57.134;-2.136;2023-08-07T00:10:14;8.48;;;3.55;;
41861;SDS011;27537;57.134;-2.136;2023-08-07T00:12:41;7.85;;;2.65;;
41861;SDS011;27537;57.134;-2.136;2023-08-07T00:15:09;8.40;;;3.10;;
41861;SDS011;27537;57.134;-2.136;2023-08-07T00:17:37;9.60;;;2.80;;
41861;SDS011;27537;57.134;-2.136;2023-08-07T00:20:04;8.68;;;2.92;;
41861;SDS011;27537;57.134;-2.136;2023-08-07T00:22:31;7.63;;;2.90;;
41861;SDS011;27537;57.134;-2.136;2023-08-07T00:24:58;7.30;;;3.25;;
41861;SDS011;27537;57.134;-2.136;2023-08-07T00:27:25;8.10;;;2.75;;
41861;SDS011;27537;57.134;-2.136;2023-08-07T00:29:51;6.30;;;2.22;;
41861;SDS011;27537;57.134;-2.136;2023-08-07T00:32:18;6.28;;;2.20;;
41861;SDS011;27537;57.134;-2.136;2023-08-07T00:34:45;7.43;;;2.58;;
41861;SDS011;27537;57.134;-2.136;2023-08-07T00:37:11;7.97;;;2.70;;
41861;SDS011;27537;57.134;-2.136;2023-08-07T00:39:38;6.82;;;2.40;;
41861;SDS011;27537;57.134;-2.136;2023-08-07T00:42:05;7.35;;;2.85;;
41861;SDS011;27537;57.134;-2.136;2023-08-07T00:44:32;8.05;;;2.75;;
41861;SDS011;27537;57.134;-2.136;2023-08-07T00:46:58;9.00;;;3.03;;
41861;SDS011;27537;57.134;-2.136;2023-08-07T00:49:25;8.23;;;3.03;;
41861;SDS011;27537;57.134;-2.136;2023-08-07T00:51:53;7.60;;;2.95;;
41861;SDS011;27537;57.134;-2.136;2023-08-07T00:54:21;8.10;;;2.70;;
41861;SDS011;27537;57.134;-2.136;2023-08-07T00:56:48;10.15;;;2.70;;
41861;SDS011;27537;57.134;-2.136;2023-08-07T00:59:15;6.53;;;2.88;;
41861;SDS011;27537;57.134;-2.136;2023-08-07T01:01:42;8.55;;;2.70;;
41861;SDS011;27537;57.134;-2.136;2023-08-07T01:04:09;9.82;;;2.83;;
41861;SDS011;27537;57.134;-2.136;2023-08-07T01:06:35;9.07;;;3.40;;
41861;SDS011;27537;57.134;-2.136;2023-08-07T01:09:02;9.02;;;3.08;;
41861;SDS011;27537;57.134;-2.136;2023-08-07T01:14:08;9.23;;;3.00;;
41861;SDS011;27537;57.134;-2.136;2023-08-07T01:16:52;7.13;;;2.65;;
41861;SDS011;27537;57.134;-2.136;2023-08-07T01:19:31;9.77;;;2.95;;
41861;SDS011;27537;57.134;-2.136;2023-08-07T01:24:45;9.52;;;2.80;;
41861;SDS011;27537;57.134;-2.136;2023-08-07T01:35:29;10.35;;;3.10;;
41861;SDS011;27537;57.134;-2.136;2023-08-07T01:37:59;8.80;;;3.67;;
41861;SDS011;27537;57.134;-2.136;2023-08-07T01:40:27;8.70;;;3.20;;
41861;SDS011;27537;57.134;-2.136;2023-08-07T01:42:54;9.18;;;3.47;;
41861;SDS011;27537;57.134;-2.136;2023-08-07T01:45:25;7.18;;;2.75;;
41861;SDS011;27537;57.134;-2.136;2023-08-07T01:47:53;8.18;;;2.55;;
41861;SDS011;27537;57.134;-2.136;2023-08-07T01:50:21;9.07;;;3.15;;
41861;SDS011;27537;57.134;-2.136;2023-08-07T01:52:48;8.57;;;3.10;;
41861;SDS011;27537;57.134;-2.136;2023-08-07T01:55:16;6.22;;;2.50;;
41861;SDS011;27537;57.134;-2.136;2023-08-07T01:57:44;8.57;;;2.95;;
41861;SDS011;27537;57.134;-2.136;2023-08-07T02:00:11;8.20;;;2.60;;
41861;SDS011;27537;57.134;-2.136;2023-08-07T02:02:38;9.90;;;3.40;;
41861;SDS011;27537;57.134;-2.136;2023-08-07T02:05:05;6.88;;;2.53;;
41861;SDS011;27537;57.134;-2.136;2023-08-07T02:07:32;7.70;;;2.90;;
41861;SDS011;27537;57.134;-2.136;2023-08-07T02:09:59;6.28;;;2.45;;
41861;SDS011;27537;57.134;-2.136;2023-08-07T02:12:25;9.15;;;2.95;;
41861;SDS011;27537;57.134;-2.136;2023-08-07T02:14:53;5.93;;;2.25;;
41861;SDS011;27537;57.134;-2.136;2023-08-07T02:17:21;7.95;;;2.60;;
41861;SDS011;27537;57.134;-2.136;2023-08-07T02:19:50;9.43;;;2.60;;
41861;SDS011;27537;57.134;-2.136;2023-08-07T02:22:17;6.90;;;2.30;;
41861;SDS011;27537;57.134;-2.136;2023-08-07T02:24:44;9.23;;;3.15;;
41861;SDS011;27537;57.134;-2.136;2023-08-07T02:27:10;7.22;;;2.53;;
41861;SDS011;27537;57.134;-2.136;2023-08-07T02:29:37;6.88;;;2.70;;
41861;SDS011;27537;57.134;-2.136;2023-08-07T02:32:04;8.25;;;3.25;;
41861;SDS011;27537;57.134;-2.136;2023-08-07T02:34:32;9.98;;;3.00;;
41861;SDS011;27537;57.134;-2.136;2023-08-07T02:36:59;8.52;;;2.70;;
41861;SDS011;27537;57.134;-2.136;2023-08-07T02:39:25;7.45;;;2.65;;
41861;SDS011;27537;57.134;-2.136;2023-08-07T02:41:52;7.85;;;3.00;;
41861;SDS011;27537;57.134;-2.136;2023-08-07T02:44:19;10.27;;;3.03;;
41861;SDS011;27537;57.134;-2.136;2023-08-07T02:46:46;9.60;;;2.83;;
41861;SDS011;27537;57.134;-2.136;2023-08-07T02:49:13;8.93;;;3.17;;
41861;SDS011;27537;57.134;-2.136;2023-08-07T02:51:39;9.07;;;3.00;;
41861;SDS011;27537;57.134;-2.136;2023-08-07T02:54:06;8.13;;;2.83;;
41861;SDS011;27537;57.134;-2.136;2023-08-07T02:56:33;8.05;;;2.63;;
41861;SDS011;27537;57.134;-2.136;2023-08-07T02:59:00;6.95;;;2.67;;
41861;SDS011;27537;57.134;-2.136;2023-08-07T03:01:28;8.55;;;3.22;;
41861;SDS011;27537;57.134;-2.136;2023-08-07T03:03:55;7.10;;;2.70;;
41861;SDS011;27537;57.134;-2.136;2023-08-07T03:06:22;10.95;;;3.15;;
41861;SDS011;27537;57.134;-2.136;2023-08-07T03:08:49;8.35;;;3.08;;
41861;SDS011;27537;57.134;-2.136;2023-08-07T03:11:15;8.10;;;3.20;;
41861;SDS011;27537;57.134;-2.136;2023-08-07T03:13:42;8.73;;;3.03;;
41861;SDS011;27537;57.134;-2.136;2023-08-07T03:16:10;7.85;;;2.95;;
41861;SDS011;27537;57.134;-2.136;2023-08-07T03:18:37;6.90;;;2.33;;
41861;SDS011;27537;57.134;-2.136;2023-08-07T03:21:04;8.57;;;2.85;;
41861;SDS011;27537;57.134;-2.136;2023-08-07T03:23:30;8.70;;;2.95;;
41861;SDS011;27537;57.134;-2.136;2023-08-07T03:26:04;9.18;;;3.45;;
41861;SDS011;27537;57.134;-2.136;2023-08-07T03:28:35;8.77;;;3.08;;
41861;SDS011;27537;57.134;-2.136;2023-08-07T03:31:03;7.57;;;2.72;;
41861;SDS011;27537;57.134;-2.136;2023-08-07T03:33:29;8.68;;;2.97;;
41861;SDS011;27537;57.134;-2.136;2023-08-07T03:35:56;8.35;;;3.00;;
41861;SDS011;27537;57.134;-2.136;2023-08-07T03:38:23;7.43;;;2.78;;
41861;SDS011;27537;57.134;-2.136;2023-08-07T03:40:50;6.65;;;2.40;;
41861;SDS011;27537;57.134;-2.136;2023-08-07T03:43:16;6.93;;;2.33;;
41861;SDS011;27537;57.134;-2.136;2023-08-07T03:45:43;9.68;;;2.80;;
41861;SDS011;27537;57.134;-2.136;2023-08-07T03:48:09;7.22;;;2.55;;
41861;SDS011;27537;57.134;-2.136;2023-08-07T03:50:36;6.60;;;2.40;;
41861;SDS011;27537;57.134;-2.136;2023-08-07T03:53:04;9.00;;;2.97;;
41861;SDS011;27537;57.134;-2.136;2023-08-07T03:55:34;7.32;;;2.80;;
41861;SDS011;27537;57.134;-2.136;2023-08-07T03:58:01;7.63;;;2.42;;
41861;SDS011;27537;57.134;-2.136;2023-08-07T04:00:28;8.40;;;2.45;;
41861;SDS011;27537;57.134;-2.136;2023-08-07T04:02:55;7.43;;;2.40;;
41861;SDS011;27537;57.134;-2.136;2023-08-07T04:05:22;7.28;;;2.60;;
41861;SDS011;27537;57.134;-2.136;2023-08-07T04:07:49;7.15;;;2.72;;
41861;SDS011;27537;57.134;-2.136;2023-08-07T04:10:15;7.47;;;2.80;;
41861;SDS011;27537;57.134;-2.136;2023-08-07T04:12:42;7.93;;;2.70;;
41861;SDS011;27537;57.134;-2.136;2023-08-07T04:15:09;7.60;;;2.67;;
41861;SDS011;27537;57.134;-2.136;2023-08-07T04:17:36;7.30;;;2.72;;
41861;SDS011;27537;57.134;-2.136;2023-08-07T04:20:03;7.90;;;2.70;;
41861;SDS011;27537;57.134;-2.136;2023-08-07T04:22:30;7.15;;;2.53;;
41861;SDS011;27537;57.134;-2.136;2023-08-07T04:24:57;7.05;;;2.67;;
41861;SDS011;27537;57.134;-2.136;2023-08-07T04:27:23;6.55;;;2.42;;
41861;SDS011;27537;57.134;-2.136;2023-08-07T04:29:50;6.93;;;2.55;;
41861;SDS011;27537;57.134;-2.136;2023-08-07T04:32:17;8.43;;;3.00;;
41861;SDS011;27537;57.134;-2.136;2023-08-07T04:34:43;5.85;;;2.30;;
41861;SDS011;27537;57.134;-2.136;2023-08-07T04:37:10;6.28;;;2.28;;
41861;SDS011;27537;57.134;-2.136;2023-08-07T04:39:37;7.28;;;2.60;;
41861;SDS011;27537;57.134;-2.136;2023-08-07T04:42:03;7.80;;;2.75;;
41861;SDS011;27537;57.134;-2.136;2023-08-07T04:44:30;5.85;;;2.30;;
41861;SDS011;27537;57.134;-2.136;2023-08-07T04:46:57;6.95;;;2.50;;
41861;SDS011;27537;57.134;-2.136;2023-08-07T04:49:24;6.93;;;2.50;;
41861;SDS011;27537;57.134;-2.136;2023-08-07T04:51:51;7.07;;;2.50;;
41861;SDS011;27537;57.134;-2.136;2023-08-07T04:54:17;5.78;;;1.80;;
41861;SDS011;27537;57.134;-2.136;2023-08-07T04:56:44;9.63;;;2.25;;
41861;SDS011;27537;57.134;-2.136;2023-08-07T04:59:11;8.88;;;2.25;;
41861;SDS011;27537;57.134;-2.136;2023-08-07T05:01:37;6.18;;;2.05;;
41861;SDS011;27537;57.134;-2.136;2023-08-07T05:04:04;5.75;;;1.90;;
41861;SDS011;27537;57.134;-2.136;2023-08-07T05:06:31;5.47;;;1.85;;
41861;SDS011;27537;57.134;-2.136;2023-08-07T05:08:58;5.65;;;1.80;;
41861;SDS011;27537;57.134;-2.136;2023-08-07T05:11:25;5.68;;;1.95;;
41861;SDS011;27537;57.134;-2.136;2023-08-07T05:13:53;6.10;;;2.20;;
41861;SDS011;27537;57.134;-2.136;2023-08-07T05:16:19;5.40;;;2.00;;
41861;SDS011;27537;57.134;-2.136;2023-08-07T05:18:46;8.32;;;2.85;;
41861;SDS011;27537;57.134;-2.136;2023-08-07T05:21:16;6.68;;;2.30;;
41861;SDS011;27537;57.134;-2.136;2023-08-07T05:23:42;7.25;;;2.70;;
41861;SDS011;27537;57.134;-2.136;2023-08-07T05:26:09;8.52;;;3.30;;
41861;SDS011;27537;57.134;-2.136;2023-08-07T05:28:36;7.90;;;2.83;;
41861;SDS011;27537;57.134;-2.136;2023-08-07T05:31:02;9.98;;;3.15;;
41861;SDS011;27537;57.134;-2.136;2023-08-07T05:33:29;6.05;;;2.35;;
41861;SDS011;27537;57.134;-2.136;2023-08-07T05:35:56;5.28;;;2.03;;
41861;SDS011;27537;57.134;-2.136;2023-08-07T05:38:22;5.93;;;2.05;;
41861;SDS011;27537;57.134;-2.136;2023-08-07T05:40:49;6.60;;;2.45;;
41861;SDS011;27537;57.134;-2.136;2023-08-07T05:43:16;5.82;;;2.28;;
41861;SDS011;27537;57.134;-2.136;2023-08-07T05:45:43;6.13;;;2.25;;
41861;SDS011;27537;57.134;-2.136;2023-08-07T05:48:12;7.88;;;2.78;;
41861;SDS011;27537;57.134;-2.136;2023-08-07T05:50:39;10.93;;;2.80;;
41861;SDS011;27537;57.134;-2.136;2023-08-07T05:53:05;8.32;;;2.47;;
41861;SDS011;27537;57.134;-2.136;2023-08-07T05:55:32;7.45;;;2.80;;
41861;SDS011;27537;57.134;-2.136;2023-08-07T05:58:00;9.52;;;3.08;;
41861;SDS011;27537;57.134;-2.136;2023-08-07T06:00:26;7.80;;;2.38;;
41861;SDS011;27537;57.134;-2.136;2023-08-07T06:02:54;7.55;;;2.75;;
41861;SDS011;27537;57.134;-2.136;2023-08-07T06:05:21;11.13;;;2.47;;
41861;SDS011;27537;57.134;-2.136;2023-08-07T06:07:48;8.95;;;2.50;;
41861;SDS011;27537;57.134;-2.136;2023-08-07T06:10:14;6.75;;;2.40;;
41861;SDS011;27537;57.134;-2.136;2023-08-07T06:12:41;6.80;;;2.58;;
41861;SDS011;27537;57.134;-2.136;2023-08-07T06:15:08;8.57;;;3.08;;
41861;SDS011;27537;57.134;-2.136;2023-08-07T06:17:35;6.50;;;2.40;;
41861;SDS011;27537;57.134;-2.136;2023-08-07T06:20:02;9.82;;;2.63;;
41861;SDS011;27537;57.134;-2.136;2023-08-07T06:22:31;7.10;;;2.53;;
41861;SDS011;27537;57.134;-2.136;2023-08-07T06:24:59;6.22;;;2.17;;
41861;SDS011;27537;57.134;-2.136;2023-08-07T06:27:25;9.82;;;2.33;;
41861;SDS011;27537;57.134;-2.136;2023-08-07T06:29:52;8.27;;;2.83;;
41861;SDS011;27537;57.134;-2.136;2023-08-07T06:32:19;7.88;;;2.90;;
41861;SDS011;27537;57.134;-2.136;2023-08-07T06:34:45;7.60;;;2.33;;
41861;SDS011;27537;57.134;-2.136;2023-08-07T06:37:12;8.60;;;2.70;;
41861;SDS011;27537;57.134;-2.136;2023-08-07T06:39:39;8.23;;;2.63;;
41861;SDS011;27537;57.134;-2.136;2023-08-07T06:42:06;7.13;;;2.25;;
41861;SDS011;27537;57.134;-2.136;2023-08-07T06:44:33;6.90;;;2.45;;
41861;SDS011;27537;57.134;-2.136;2023-08-07T06:46:59;7.95;;;2.60;;
41861;SDS011;27537;57.134;-2.136;2023-08-07T06:49:26;5.97;;;2.25;;
41861;SDS011;27537;57.134;-2.136;2023-08-07T06:51:53;6.30;;;2.22;;
41861;SDS011;27537;57.134;-2.136;2023-08-07T06:54:20;6.68;;;2.20;;
41861;SDS011;27537;57.134;-2.136;2023-08-07T06:56:47;7.07;;;2.53;;
41861;SDS011;27537;57.134;-2.136;2023-08-07T06:59:13;6.10;;;1.95;;
41861;SDS011;27537;57.134;-2.136;2023-08-07T07:01:40;6.55;;;2.13;;
41861;SDS011;27537;57.134;-2.136;2023-08-07T07:04:07;6.75;;;2.33;;
41861;SDS011;27537;57.134;-2.136;2023-08-07T07:06:33;6.32;;;2.25;;
41861;SDS011;27537;57.134;-2.136;2023-08-07T07:09:00;6.65;;;2.35;;
41861;SDS011;27537;57.134;-2.136;2023-08-07T07:11:27;8.70;;;2.67;;
41861;SDS011;27537;57.134;-2.136;2023-08-07T07:13:53;6.93;;;2.40;;
41861;SDS011;27537;57.134;-2.136;2023-08-07T07:16:20;8.25;;;2.30;;
41861;SDS011;27537;57.134;-2.136;2023-08-07T07:18:49;6.32;;;1.95;;
41861;SDS011;27537;57.134;-2.136;2023-08-07T07:21:17;9.57;;;2.47;;
41861;SDS011;27537;57.134;-2.136;2023-08-07T07:23:44;8.90;;;2.60;;
41861;SDS011;27537;57.134;-2.136;2023-08-07T07:26:11;7.38;;;2.70;;
41861;SDS011;27537;57.134;-2.136;2023-08-07T07:28:37;7.15;;;2.40;;
41861;SDS011;27537;57.134;-2.136;2023-08-07T07:31:04;9.80;;;2.90;;
41861;SDS011;27537;57.134;-2.136;2023-08-07T07:33:31;7.95;;;2.70;;
41861;SDS011;27537;57.134;-2.136;2023-08-07T07:35:58;6.03;;;2.13;;
41861;SDS011;27537;57.134;-2.136;2023-08-07T07:38:25;6.25;;;2.03;;
41861;SDS011;27537;57.134;-2.136;2023-08-07T07:40:52;8.40;;;2.70;;
41861;SDS011;27537;57.134;-2.136;2023-08-07T07:43:22;6.07;;;2.15;;
41861;SDS011;27537;57.134;-2.136;2023-08-07T07:45:49;6.15;;;2.28;;
41861;SDS011;27537;57.134;-2.136;2023-08-07T07:48:16;6.80;;;2.15;;
41861;SDS011;27537;57.134;-2.136;2023-08-07T07:50:43;6.68;;;2.13;;
41861;SDS011;27537;57.134;-2.136;2023-08-07T07:53:09;6.00;;;1.73;;
41861;SDS011;27537;57.134;-2.136;2023-08-07T07:55:36;5.43;;;1.73;;
41861;SDS011;27537;57.134;-2.136;2023-08-07T07:58:04;4.72;;;1.50;;
41861;SDS011;27537;57.134;-2.136;2023-08-07T08:00:32;6.93;;;2.10;;
41861;SDS011;27537;57.134;-2.136;2023-08-07T08:02:59;6.93;;;1.67;;
41861;SDS011;27537;57.134;-2.136;2023-08-07T08:05:26;6.20;;;1.70;;
41861;SDS011;27537;57.134;-2.136;2023-08-07T08:07:52;5.68;;;1.55;;
41861;SDS011;27537;57.134;-2.136;2023-08-07T08:10:19;4.05;;;1.45;;
41861;SDS011;27537;57.134;-2.136;2023-08-07T08:12:46;5.40;;;1.67;;
41861;SDS011;27537;57.134;-2.136;2023-08-07T08:15:13;5.75;;;1.40;;
41861;SDS011;27537;57.134;-2.136;2023-08-07T08:17:39;5.50;;;1.60;;
41861;SDS011;27537;57.134;-2.136;2023-08-07T08:20:07;2.47;;;1.10;;
41861;SDS011;27537;57.134;-2.136;2023-08-07T08:22:34;6.07;;;1.48;;
41861;SDS011;27537;57.134;-2.136;2023-08-07T08:25:01;4.70;;;1.58;;
41861;SDS011;27537;57.134;-2.136;2023-08-07T08:27:28;5.13;;;1.67;;
41861;SDS011;27537;57.134;-2.136;2023-08-07T08:29:55;4.55;;;1.40;;
41861;SDS011;27537;57.134;-2.136;2023-08-07T08:32:21;3.92;;;1.30;;
41861;SDS011;27537;57.134;-2.136;2023-08-07T08:34:48;5.25;;;1.45;;
41861;SDS011;27537;57.134;-2.136;2023-08-07T08:37:18;4.75;;;1.63;;
41861;SDS011;27537;57.134;-2.136;2023-08-07T08:39:44;6.13;;;1.85;;
41861;SDS011;27537;57.134;-2.136;2023-08-07T08:42:11;4.97;;;1.60;;
41861;SDS011;27537;57.134;-2.136;2023-08-07T08:44:41;4.07;;;1.40;;
41861;SDS011;27537;57.134;-2.136;2023-08-07T08:47:13;5.67;;;1.60;;
41861;SDS011;27537;57.134;-2.136;2023-08-07T08:49:47;7.07;;;1.60;;
41861;SDS011;27537;57.134;-2.136;2023-08-07T08:52:16;3.90;;;1.50;;
41861;SDS011;27537;57.134;-2.136;2023-08-07T08:54:43;4.25;;;1.50;;
41861;SDS011;27537;57.134;-2.136;2023-08-07T08:57:11;4.45;;;1.27;;
41861;SDS011;27537;57.134;-2.136;2023-08-07T08:59:40;4.30;;;1.50;;
41861;SDS011;27537;57.134;-2.136;2023-08-07T09:02:08;4.88;;;1.40;;
41861;SDS011;27537;57.134;-2.136;2023-08-07T09:04:35;4.00;;;1.30;;
41861;SDS011;27537;57.134;-2.136;2023-08-07T09:07:02;4.88;;;1.40;;
41861;SDS011;27537;57.134;-2.136;2023-08-07T09:09:30;3.78;;;1.38;;
41861;SDS011;27537;57.134;-2.136;2023-08-07T09:11:57;5.30;;;1.60;;
41861;SDS011;27537;57.134;-2.136;2023-08-07T09:14:26;7.35;;;2.00;;
41861;SDS011;27537;57.134;-2.136;2023-08-07T09:16:58;5.30;;;1.70;;
41861;SDS011;27537;57.134;-2.136;2023-08-07T09:19:27;8.02;;;1.80;;
41861;SDS011;27537;57.134;-2.136;2023-08-07T09:21:54;6.13;;;1.70;;
41861;SDS011;27537;57.134;-2.136;2023-08-07T09:24:21;8.98;;;2.00;;
41861;SDS011;27537;57.134;-2.136;2023-08-07T09:26:50;4.25;;;1.63;;
41861;SDS011;27537;57.134;-2.136;2023-08-07T09:29:18;4.38;;;1.50;;
41861;SDS011;27537;57.134;-2.136;2023-08-07T09:31:47;4.68;;;1.60;;
41861;SDS011;27537;57.134;-2.136;2023-08-07T09:34:14;5.18;;;1.70;;
41861;SDS011;27537;57.134;-2.136;2023-08-07T09:36:44;5.30;;;1.60;;
41861;SDS011;27537;57.134;-2.136;2023-08-07T09:39:10;4.97;;;1.45;;
41861;SDS011;27537;57.134;-2.136;2023-08-07T09:41:37;4.55;;;1.67;;
41861;SDS011;27537;57.134;-2.136;2023-08-07T09:44:07;5.28;;;1.40;;
41861;SDS011;27537;57.134;-2.136;2023-08-07T09:46:43;4.07;;;1.45;;
41861;SDS011;27537;57.134;-2.136;2023-08-07T09:49:11;4.70;;;1.60;;
41861;SDS011;27537;57.134;-2.136;2023-08-07T09:51:44;5.15;;;1.55;;
41861;SDS011;27537;57.134;-2.136;2023-08-07T09:54:13;4.88;;;1.55;;
41861;SDS011;27537;57.134;-2.136;2023-08-07T09:56:40;5.47;;;1.77;;
41861;SDS011;27537;57.134;-2.136;2023-08-07T09:59:07;5.30;;;1.52;;
41861;SDS011;27537;57.134;-2.136;2023-08-07T10:01:37;4.25;;;1.42;;
41861;SDS011;27537;57.134;-2.136;2023-08-07T10:04:06;4.65;;;1.65;;
41861;SDS011;27537;57.134;-2.136;2023-08-07T10:06:42;5.15;;;1.65;;
41861;SDS011;27537;57.134;-2.136;2023-08-07T10:09:09;4.05;;;1.30;;
41861;SDS011;27537;57.134;-2.136;2023-08-07T10:11:38;5.65;;;1.73;;
41861;SDS011;27537;57.134;-2.136;2023-08-07T10:14:06;8.52;;;1.58;;
41861;SDS011;27537;57.134;-2.136;2023-08-07T10:16:33;6.68;;;1.50;;
41861;SDS011;27537;57.134;-2.136;2023-08-07T10:19:05;5.15;;;1.60;;
41861;SDS011;27537;57.134;-2.136;2023-08-07T10:21:33;3.55;;;1.30;;
41861;SDS011;27537;57.134;-2.136;2023-08-07T10:24:06;4.90;;;1.60;;
41861;SDS011;27537;57.134;-2.136;2023-08-07T10:26:35;6.90;;;1.60;;
41861;SDS011;27537;57.134;-2.136;2023-08-07T10:29:07;5.70;;;1.77;;
41861;SDS011;27537;57.134;-2.136;2023-08-07T10:31:37;3.63;;;1.38;;
41861;SDS011;27537;57.134;-2.136;2023-08-07T10:34:08;9.77;;;1.90;;
41861;SDS011;27537;57.134;-2.136;2023-08-07T10:36:36;4.20;;;1.40;;
41861;SDS011;27537;57.134;-2.136;2023-08-07T10:39:05;4.45;;;1.40;;
41861;SDS011;27537;57.134;-2.136;2023-08-07T10:41:41;5.43;;;1.60;;
41861;SDS011;27537;57.134;-2.136;2023-08-07T10:44:20;5.63;;;1.52;;
41861;SDS011;27537;57.134;-2.136;2023-08-07T10:47:00;4.63;;;1.23;;
41861;SDS011;27537;57.134;-2.136;2023-08-07T10:49:31;4.55;;;1.25;;
41861;SDS011;27537;57.134;-2.136;2023-08-07T10:52:07;3.15;;;1.10;;
41861;SDS011;27537;57.134;-2.136;2023-08-07T10:54:45;3.42;;;1.08;;
41861;SDS011;27537;57.134;-2.136;2023-08-07T10:57:14;3.58;;;1.23;;
41861;SDS011;27537;57.134;-2.136;2023-08-07T11:02:26;3.67;;;1.23;;
41861;SDS011;27537;57.134;-2.136;2023-08-07T11:04:56;4.05;;;1.20;;
41861;SDS011;27537;57.134;-2.136;2023-08-07T11:07:26;3.22;;;1.20;;
41861;SDS011;27537;57.134;-2.136;2023-08-07T11:09:54;4.97;;;1.38;;
41861;SDS011;27537;57.134;-2.136;2023-08-07T11:12:26;3.42;;;1.23;;
41861;SDS011;27537;57.134;-2.136;2023-08-07T11:14:54;4.97;;;1.30;;
41861;SDS011;27537;57.134;-2.136;2023-08-07T11:17:26;3.28;;;1.20;;
41861;SDS011;27537;57.134;-2.136;2023-08-07T11:19:55;3.72;;;1.30;;
41861;SDS011;27537;57.134;-2.136;2023-08-07T11:22:24;4.15;;;1.30;;
41861;SDS011;27537;57.134;-2.136;2023-08-07T11:24:51;6.10;;;1.00;;
41861;SDS011;27537;57.134;-2.136;2023-08-07T11:27:20;3.05;;;0.93;;
41861;SDS011;27537;57.134;-2.136;2023-08-07T11:29:49;3.22;;;0.93;;
41861;SDS011;27537;57.134;-2.136;2023-08-07T11:32:16;5.30;;;1.38;;
41861;SDS011;27537;57.134;-2.136;2023-08-07T11:34:51;3.33;;;1.10;;
41861;SDS011;27537;57.134;-2.136;2023-08-07T11:37:18;3.85;;;1.20;;
41861;SDS011;27537;57.134;-2.136;2023-08-07T11:39:45;3.25;;;1.13;;
41861;SDS011;27537;57.134;-2.136;2023-08-07T11:42:12;3.78;;;1.10;;
41861;SDS011;27537;57.134;-2.136;2023-08-07T11:44:40;4.25;;;1.17;;
41861;SDS011;27537;57.134;-2.136;2023-08-07T11:47:09;3.70;;;1.30;;
41861;SDS011;27537;57.134;-2.136;2023-08-07T11:49:36;3.47;;;1.10;;
41861;SDS011;27537;57.134;-2.136;2023-08-07T11:52:03;4.75;;;1.08;;
41861;SDS011;27537;57.134;-2.136;2023-08-07T11:54:30;2.35;;;0.90;;
41861;SDS011;27537;57.134;-2.136;2023-08-07T11:56:58;2.30;;;0.80;;
41861;SDS011;27537;57.134;-2.136;2023-08-07T11:59:25;3.53;;;1.10;;
41861;SDS011;27537;57.134;-2.136;2023-08-07T12:01:52;2.85;;;0.90;;
41861;SDS011;27537;57.134;-2.136;2023-08-07T12:04:19;3.05;;;1.00;;
41861;SDS011;27537;57.134;-2.136;2023-08-07T12:06:52;3.15;;;1.10;;
41861;SDS011;27537;57.134;-2.136;2023-08-07T12:09:25;3.47;;;0.88;;
41861;SDS011;27537;57.134;-2.136;2023-08-07T12:11:56;6.78;;;1.20;;
41861;SDS011;27537;57.134;-2.136;2023-08-07T12:14:27;5.10;;;1.13;;
41861;SDS011;27537;57.134;-2.136;2023-08-07T12:16:56;2.83;;;0.82;;
41861;SDS011;27537;57.134;-2.136;2023-08-07T12:19:23;1.98;;;0.80;;
41861;SDS011;27537;57.134;-2.136;2023-08-07T12:21:50;4.05;;;1.20;;
41861;SDS011;27537;57.134;-2.136;2023-08-07T12:24:18;5.10;;;1.20;;
41861;SDS011;27537;57.134;-2.136;2023-08-07T12:26:46;2.83;;;1.00;;
41861;SDS011;27537;57.134;-2.136;2023-08-07T12:29:13;3.03;;;0.90;;
41861;SDS011;27537;57.134;-2.136;2023-08-07T12:31:40;3.88;;;1.30;;
41861;SDS011;27537;57.134;-2.136;2023-08-07T12:34:07;4.65;;;1.30;;
41861;SDS011;27537;57.134;-2.136;2023-08-07T12:36:38;4.80;;;1.10;;
41861;SDS011;27537;57.134;-2.136;2023-08-07T12:39:05;2.33;;;1.02;;
41861;SDS011;27537;57.134;-2.136;2023-08-07T12:41:32;3.55;;;1.30;;
41861;SDS011;27537;57.134;-2.136;2023-08-07T12:44:02;6.05;;;1.20;;
41861;SDS011;27537;57.134;-2.136;2023-08-07T12:46:29;2.42;;;1.00;;
41861;SDS011;27537;57.134;-2.136;2023-08-07T12:48:57;2.92;;;1.00;;
41861;SDS011;27537;57.134;-2.136;2023-08-07T12:51:24;2.72;;;0.90;;
41861;SDS011;27537;57.134;-2.136;2023-08-07T12:53:50;2.05;;;0.90;;
41861;SDS011;27537;57.134;-2.136;2023-08-07T12:56:17;6.63;;;1.67;;
41861;SDS011;27537;57.134;-2.136;2023-08-07T12:58:44;5.95;;;1.40;;
41861;SDS011;27537;57.134;-2.136;2023-08-07T13:01:12;2.90;;;1.00;;
41861;SDS011;27537;57.134;-2.136;2023-08-07T13:03:38;4.28;;;0.98;;
41861;SDS011;27537;57.134;-2.136;2023-08-07T13:06:06;3.40;;;0.90;;
41861;SDS011;27537;57.134;-2.136;2023-08-07T13:08:34;2.05;;;0.82;;
41861;SDS011;27537;57.134;-2.136;2023-08-07T13:11:01;6.35;;;1.05;;
41861;SDS011;27537;57.134;-2.136;2023-08-07T13:13:31;1.85;;;0.80;;
41861;SDS011;27537;57.134;-2.136;2023-08-07T13:15:58;2.08;;;0.80;;
41861;SDS011;27537;57.134;-2.136;2023-08-07T13:18:25;1.00;;;0.70;;
41861;SDS011;27537;57.134;-2.136;2023-08-07T13:20:51;2.10;;;0.80;;
41861;SDS011;27537;57.134;-2.136;2023-08-07T13:33:49;1.85;;;0.80;;
41861;SDS011;27537;57.134;-2.136;2023-08-07T13:36:16;4.78;;;0.85;;
41861;SDS011;27537;57.134;-2.136;2023-08-07T13:38:43;2.17;;;0.85;;
41861;SDS011;27537;57.134;-2.136;2023-08-07T13:41:12;2.60;;;0.95;;
41861;SDS011;27537;57.134;-2.136;2023-08-07T13:43:39;2.25;;;0.90;;
41861;SDS011;27537;57.134;-2.136;2023-08-07T13:46:06;2.97;;;0.90;;
41861;SDS011;27537;57.134;-2.136;2023-08-07T13:48:32;2.85;;;0.93;;
41861;SDS011;27537;57.134;-2.136;2023-08-07T13:51:00;1.80;;;0.70;;
41861;SDS011;27537;57.134;-2.136;2023-08-07T13:53:31;2.90;;;1.00;;
41861;SDS011;27537;57.134;-2.136;2023-08-07T13:55:58;4.32;;;0.90;;
41861;SDS011;27537;57.134;-2.136;2023-08-07T13:58:25;2.95;;;1.05;;
41861;SDS011;27537;57.134;-2.136;2023-08-07T14:00:51;3.60;;;0.90;;
41861;SDS011;27537;57.134;-2.136;2023-08-07T14:03:18;1.10;;;0.70;;
41861;SDS011;27537;57.134;-2.136;2023-08-07T14:05:46;2.15;;;0.90;;
41861;SDS011;27537;57.134;-2.136;2023-08-07T14:08:12;2.20;;;0.88;;
41861;SDS011;27537;57.134;-2.136;2023-08-07T14:10:40;1.80;;;0.80;;
41861;SDS011;27537;57.134;-2.136;2023-08-07T14:13:08;2.40;;;0.80;;
41861;SDS011;27537;57.134;-2.136;2023-08-07T14:15:38;2.03;;;1.00;;
41861;SDS011;27537;57.134;-2.136;2023-08-07T14:18:05;3.10;;;1.23;;
41861;SDS011;27537;57.134;-2.136;2023-08-07T14:20:32;2.28;;;0.80;;
41861;SDS011;27537;57.134;-2.136;2023-08-07T14:23:13;2.40;;;0.90;;
41861;SDS011;27537;57.134;-2.136;2023-08-07T14:26:00;3.60;;;0.90;;
41861;SDS011;27537;57.134;-2.136;2023-08-07T14:28:30;2.67;;;0.98;;
41861;SDS011;27537;57.134;-2.136;2023-08-07T14:30:57;2.30;;;0.80;;
41861;SDS011;27537;57.134;-2.136;2023-08-07T14:33:27;2.92;;;1.10;;
41861;SDS011;27537;57.134;-2.136;2023-08-07T14:35:54;3.08;;;1.10;;
41861;SDS011;27537;57.134;-2.136;2023-08-07T14:38:22;5.15;;;1.50;;
41861;SDS011;27537;57.134;-2.136;2023-08-07T14:40:48;3.28;;;1.00;;
41861;SDS011;27537;57.134;-2.136;2023-08-07T14:43:15;4.55;;;1.23;;
41861;SDS011;27537;57.134;-2.136;2023-08-07T14:45:42;4.72;;;1.40;;
41861;SDS011;27537;57.134;-2.136;2023-08-07T14:48:09;5.07;;;1.60;;
41861;SDS011;27537;57.134;-2.136;2023-08-07T14:50:36;4.25;;;1.30;;
41861;SDS011;27537;57.134;-2.136;2023-08-07T14:53:03;6.40;;;1.30;;
41861;SDS011;27537;57.134;-2.136;2023-08-07T14:55:30;4.80;;;1.38;;
41861;SDS011;27537;57.134;-2.136;2023-08-07T14:57:59;2.45;;;1.15;;
41861;SDS011;27537;57.134;-2.136;2023-08-07T15:00:26;4.70;;;1.27;;
41861;SDS011;27537;57.134;-2.136;2023-08-07T15:02:53;8.18;;;2.15;;